Bernice, Oklahoma
Current Conditions -  °F | °C
As of 11:15 PM on Thursday 30 Oct 2014 (Local Time) from KGMJ Reporting Station
Clear Clear  
Wind Chill: 57°   Ceiling: Unl
Heat Index: 57°   Visibility: 10mi
Dew Point: 41°   Wind: 5mph
Humidity: 55%   Direction: 350°N
Pressure: 30.16"   Gusts: NA
Location:  36.651°N, 94.9303°W
Report Text: KGMJ 310415Z AUTO 35004KT 10SM CLR 14/05 A3016 RMK AO2
Loading
Personal Weather Stations






























Interactive Weather Map
Tropical Storm Tracking
New forecast layout! Learn more

10-Day Weather Forecast

Advertisements
Track Severe Weather on mobile